Time;durP1;ratioP1;P1;durP2;ratioP2;P2;SDS_P1;SDS_P2;PMS_P1;PMS_P2;Temp;Humidity;BMP_temperature;BMP_pressure;BME280_temperature;BME280_humidity;BME280_pressure;Samples;Min_cycle;Max_cycle;Signal;HPM_P1;HPM_P2
2021/09/24 00:01:47;;;;;;;6.77;1.40;;;14.30;99.90;;;;;;5033021;28;20635;-70
2021/09/24 00:04:15;;;;;;;6.90;1.60;;;14.00;99.90;;;;;;5033401;28;20207;-70
2021/09/24 00:06:44;;;;;;;4.20;1.60;;;13.80;99.90;;;;;;5033479;28;20689;-70
2021/09/24 00:09:11;;;;;;;4.77;1.27;;;13.60;99.90;;;;;;5033624;28;20281;-70
2021/09/24 00:11:40;;;;;;;4.73;1.40;;;13.50;99.90;;;;;;5032774;28;20213;-70
2021/09/24 00:14:08;;;;;;;4.20;1.27;;;13.40;99.90;;;;;;5032964;28;20293;-70
2021/09/24 00:16:35;;;;;;;6.33;1.33;;;13.30;99.90;;;;;;5033057;28;20206;-70
2021/09/24 00:19:02;;;;;;;4.73;1.30;;;13.20;99.90;;;;;;5021776;28;20271;-70
2021/09/24 00:21:30;;;;;;;7.77;2.07;;;13.00;99.90;;;;;;5030769;28;20207;-70
2021/09/24 00:23:57;;;;;;;3.67;1.00;;;13.00;99.90;;;;;;5032766;28;20301;-70
2021/09/24 00:26:23;;;;;;;5.87;1.80;;;12.90;99.90;;;;;;5032953;28;20301;-70
2021/09/24 00:28:50;;;;;;;5.23;1.40;;;12.90;99.90;;;;;;5032397;28;20257;-70
2021/09/24 00:31:17;;;;;;;6.00;2.00;;;12.80;99.90;;;;;;5032181;28;20678;-70
2021/09/24 00:33:44;;;;;;;5.43;1.50;;;12.70;99.90;;;;;;5032719;28;20248;-70
2021/09/24 00:36:11;;;;;;;7.60;1.70;;;12.70;99.90;;;;;;5032228;28;20240;-71
2021/09/24 00:38:39;;;;;;;5.10;1.50;;;12.60;99.90;;;;;;5031812;28;20203;-70
2021/09/24 00:41:07;;;;;;;4.67;1.23;;;12.50;99.90;;;;;;5032308;28;20199;-71
2021/09/24 00:43:35;;;;;;;4.37;1.33;;;12.40;99.90;;;;;;5032588;28;20218;-71
2021/09/24 00:46:02;;;;;;;7.27;1.70;;;12.40;99.90;;;;;;5032940;28;20567;-71
2021/09/24 00:48:29;;;;;;;6.37;1.67;;;12.30;99.90;;;;;;5032890;28;20237;-71
2021/09/24 00:50:56;;;;;;;7.07;1.90;;;12.30;99.90;;;;;;5032605;28;20571;-70
2021/09/24 00:53:24;;;;;;;7.87;1.83;;;12.20;99.90;;;;;;5032724;28;20589;-70
2021/09/24 00:55:52;;;;;;;7.73;2.03;;;12.20;99.90;;;;;;5029416;28;20211;-70
2021/09/24 00:58:19;;;;;;;8.00;1.83;;;12.10;99.90;;;;;;5022517;28;20293;-70
2021/09/24 01:00:46;;;;;;;7.77;1.63;;;12.10;99.90;;;;;;5031610;28;20217;-70
2021/09/24 01:03:13;;;;;;;8.53;1.80;;;12.10;99.90;;;;;;5032130;28;20206;-71
2021/09/24 01:05:40;;;;;;;14.30;2.73;;;12.10;99.90;;;;;;5032134;28;20297;-71
2021/09/24 01:08:06;;;;;;;9.70;2.07;;;12.10;99.90;;;;;;5031838;28;20227;-70
2021/09/24 01:10:34;;;;;;;6.47;2.00;;;12.00;99.90;;;;;;5031854;28;20206;-70
2021/09/24 01:13:02;;;;;;;9.20;2.17;;;12.10;99.90;;;;;;5031687;28;20213;-71
2021/09/24 01:15:29;;;;;;;6.70;1.73;;;12.00;99.90;;;;;;5027793;28;20306;-71
2021/09/24 01:17:55;;;;;;;7.27;2.47;;;12.00;99.90;;;;;;5031631;28;20201;-70
2021/09/24 01:20:23;;;;;;;9.10;2.23;;;12.00;99.90;;;;;;5031490;28;20290;-71
2021/09/24 01:22:53;;;;;;;8.40;2.10;;;12.00;99.90;;;;;;5031636;28;20206;-70
2021/09/24 01:25:21;;;;;;;7.87;2.30;;;11.90;99.90;;;;;;5031301;28;20207;-69
2021/09/24 01:27:48;;;;;;;7.53;2.40;;;11.90;99.90;;;;;;5031624;28;20544;-69
2021/09/24 01:30:16;;;;;;;7.20;1.97;;;11.90;99.90;;;;;;5030821;28;20202;-70
2021/09/24 01:32:43;;;;;;;8.53;2.37;;;12.00;99.90;;;;;;5030634;28;20256;-70
2021/09/24 01:35:11;;;;;;;6.83;1.73;;;12.00;99.90;;;;;;5031517;28;20245;-70
2021/09/24 01:37:38;;;;;;;4.93;1.30;;;12.00;99.90;;;;;;5030945;28;20683;-69
2021/09/24 01:40:11;;;;;;;7.40;1.63;;;12.00;99.90;;;;;;5031433;28;20205;-69
2021/09/24 01:42:38;;;;;;;12.50;2.40;;;12.10;99.90;;;;;;5031792;28;20660;-70
2021/09/24 01:45:06;;;;;;;9.40;1.80;;;12.10;99.90;;;;;;5031350;28;20217;-69
2021/09/24 01:47:33;;;;;;;8.83;2.13;;;12.10;99.90;;;;;;5022790;28;20668;-69
2021/09/24 01:50:00;;;;;;;8.30;1.73;;;12.10;99.90;;;;;;5026694;28;20230;-70
2021/09/24 01:52:28;;;;;;;8.27;1.83;;;12.10;99.90;;;;;;5017195;28;20218;-70
2021/09/24 01:54:55;;;;;;;9.77;1.93;;;12.20;99.90;;;;;;5032207;28;20655;-69
2021/09/24 01:57:23;;;;;;;7.10;1.67;;;12.10;99.90;;;;;;5031883;28;20218;-70
2021/09/24 01:59:50;;;;;;;7.50;2.20;;;12.20;99.90;;;;;;5031835;28;20663;-69
2021/09/24 02:02:17;;;;;;;5.70;1.90;;;12.20;99.90;;;;;;5030019;28;20572;-69
2021/09/24 02:04:44;;;;;;;6.30;1.57;;;12.20;99.90;;;;;;5031512;28;20729;-69
2021/09/24 02:07:11;;;;;;;8.63;1.80;;;12.20;99.90;;;;;;5031574;28;20211;-70
2021/09/24 02:09:38;;;;;;;10.40;2.37;;;12.20;99.90;;;;;;5031639;28;20222;-69
2021/09/24 02:12:05;;;;;;;4.17;1.80;;;12.20;99.90;;;;;;5031463;28;20214;-70
2021/09/24 02:14:34;;;;;;;11.10;1.87;;;12.20;99.90;;;;;;5031758;28;20886;-70
2021/09/24 02:17:00;;;;;;;11.27;1.87;;;12.20;99.90;;;;;;5031681;28;20206;-70
2021/09/24 02:19:29;;;;;;;7.93;1.60;;;12.30;99.90;;;;;;5031640;28;20237;-69
2021/09/24 02:21:57;;;;;;;7.33;1.87;;;12.30;99.90;;;;;;5026749;28;20228;-69
2021/09/24 02:24:24;;;;;;;11.87;1.90;;;12.30;99.90;;;;;;5031528;28;20229;-69
2021/09/24 02:26:51;;;;;;;7.80;1.60;;;12.30;99.90;;;;;;5031242;28;20210;-70
2021/09/24 02:29:18;;;;;;;7.07;1.73;;;12.30;99.90;;;;;;5018691;28;20219;-70
2021/09/24 02:31:46;;;;;;;7.43;1.93;;;12.30;99.90;;;;;;5029992;28;20206;-70
2021/09/24 02:34:13;;;;;;;7.53;2.03;;;12.30;99.90;;;;;;5031370;28;20736;-70
2021/09/24 02:36:40;;;;;;;6.67;1.30;;;12.30;99.90;;;;;;5031141;28;20223;-69
2021/09/24 02:39:08;;;;;;;9.70;2.03;;;12.30;99.90;;;;;;5034157;28;20199;-70
2021/09/24 02:41:35;;;;;;;5.87;1.70;;;12.30;99.90;;;;;;5034398;28;20217;-68
2021/09/24 02:44:02;;;;;;;5.73;1.93;;;12.30;99.90;;;;;;5034345;28;20277;-69
2021/09/24 02:46:32;;;;;;;8.83;1.77;;;12.20;99.90;;;;;;5034956;28;20671;-69
2021/09/24 02:49:01;;;;;;;5.87;1.63;;;12.20;99.90;;;;;;5035228;28;20233;-69
2021/09/24 02:51:28;;;;;;;12.97;2.27;;;12.20;99.90;;;;;;5034440;28;20276;-70
2021/09/24 02:53:55;;;;;;;6.70;1.57;;;12.20;99.90;;;;;;5034008;28;20202;-69
2021/09/24 02:56:21;;;;;;;7.17;2.20;;;12.20;99.90;;;;;;5027831;28;20207;-69
2021/09/24 02:58:48;;;;;;;14.07;1.87;;;12.20;99.90;;;;;;5015111;28;20211;-70
2021/09/24 03:01:15;;;;;;;9.73;2.40;;;12.20;99.90;;;;;;5034422;28;20294;-69
2021/09/24 03:03:42;;;;;;;8.60;2.27;;;12.20;99.90;;;;;;5034411;28;20696;-69
2021/09/24 03:06:10;;;;;;;7.93;2.80;;;12.20;99.90;;;;;;5033717;28;20593;-69
2021/09/24 03:08:37;;;;;;;8.10;2.37;;;12.20;99.90;;;;;;5034524;28;20237;-69
2021/09/24 03:11:04;;;;;;;7.83;3.37;;;12.20;99.90;;;;;;5034106;28;20580;-68
2021/09/24 03:13:31;;;;;;;8.07;1.93;;;12.20;99.90;;;;;;5034912;28;20636;-68
2021/09/24 03:15:59;;;;;;;7.20;1.73;;;12.20;99.90;;;;;;5034355;28;20209;-69
2021/09/24 03:18:26;;;;;;;10.53;2.57;;;12.20;99.90;;;;;;5034345;28;20209;-69
2021/09/24 03:20:52;;;;;;;6.70;1.90;;;12.20;99.90;;;;;;5035049;28;20203;-69
2021/09/24 03:23:21;;;;;;;11.13;2.40;;;12.20;99.90;;;;;;5034444;28;20209;-69
2021/09/24 03:25:48;;;;;;;6.37;2.00;;;12.20;99.90;;;;;;5035041;28;20224;-69
2021/09/24 03:28:15;;;;;;;9.43;2.00;;;12.20;99.90;;;;;;5034090;28;20226;-69
2021/09/24 03:30:43;;;;;;;6.97;2.20;;;12.20;99.90;;;;;;5034059;28;20301;-69
2021/09/24 03:33:10;;;;;;;10.33;2.00;;;12.20;99.90;;;;;;5033743;28;20203;-68
2021/09/24 03:35:36;;;;;;;7.00;1.90;;;12.10;99.90;;;;;;5034630;28;20298;-69
2021/09/24 03:38:03;;;;;;;11.17;2.43;;;12.10;99.90;;;;;;5034989;28;20221;-69
2021/09/24 03:40:32;;;;;;;8.53;1.90;;;12.10;99.90;;;;;;5035167;28;20203;-70
2021/09/24 03:42:59;;;;;;;9.97;1.77;;;12.10;99.90;;;;;;5033580;28;20229;-69
2021/09/24 03:45:27;;;;;;;8.37;2.57;;;12.20;99.90;;;;;;5028673;28;20207;-69
2021/09/24 03:47:55;;;;;;;10.17;2.73;;;12.20;99.90;;;;;;5026758;28;20280;-69
2021/09/24 03:50:23;;;;;;;8.27;2.07;;;12.10;99.90;;;;;;5033544;28;20302;-70
2021/09/24 03:52:51;;;;;;;11.57;2.27;;;12.10;99.90;;;;;;5033027;28;20213;-70
2021/09/24 03:55:18;;;;;;;11.87;2.30;;;12.10;99.90;;;;;;5033748;28;20206;-69
2021/09/24 03:57:46;;;;;;;6.80;2.10;;;12.20;99.90;;;;;;5033362;28;20218;-69
2021/09/24 04:00:15;;;;;;;7.80;2.37;;;12.10;99.90;;;;;;5033154;28;20206;-70
2021/09/24 04:02:42;;;;;;;7.70;2.00;;;12.10;99.90;;;;;;5032387;28;20206;-69
2021/09/24 04:05:10;;;;;;;8.13;2.20;;;12.10;99.90;;;;;;5033682;28;20640;-68
2021/09/24 04:07:36;;;;;;;5.53;2.20;;;12.20;99.90;;;;;;5032490;28;20215;-68
2021/09/24 04:10:04;;;;;;;8.60;2.47;;;12.10;99.90;;;;;;5032946;28;20228;-69
2021/09/24 04:12:31;;;;;;;8.67;2.13;;;12.20;99.90;;;;;;5032572;28;20207;-70
2021/09/24 04:15:00;;;;;;;9.37;2.10;;;12.20;99.90;;;;;;5033228;28;20659;-69
2021/09/24 04:17:27;;;;;;;5.97;2.30;;;12.20;99.90;;;;;;5033534;28;20312;-70
2021/09/24 04:19:53;;;;;;;8.67;2.27;;;12.10;99.90;;;;;;5033153;28;20229;-69
2021/09/24 04:22:20;;;;;;;7.10;2.00;;;12.10;99.90;;;;;;5032273;28;20203;-70
2021/09/24 04:24:47;;;;;;;11.07;2.37;;;12.10;99.90;;;;;;5032487;28;20697;-68
2021/09/24 04:27:14;;;;;;;7.90;2.03;;;12.10;99.90;;;;;;5032541;28;20242;-69
2021/09/24 04:29:41;;;;;;;11.60;2.10;;;12.20;99.90;;;;;;5033228;28;20219;-68
2021/09/24 04:32:09;;;;;;;8.07;2.00;;;12.10;99.90;;;;;;5032568;28;20570;-68
2021/09/24 04:34:36;;;;;;;5.83;1.73;;;12.20;99.90;;;;;;5032890;28;20302;-70
2021/09/24 04:37:03;;;;;;;12.73;2.50;;;12.20;99.90;;;;;;5032456;28;20583;-69
2021/09/24 04:39:30;;;;;;;8.23;2.27;;;12.20;99.90;;;;;;5020650;28;20203;-70
2021/09/24 04:41:57;;;;;;;9.73;2.77;;;12.20;99.90;;;;;;5029805;28;20207;-69
2021/09/24 04:44:24;;;;;;;9.13;2.17;;;12.20;99.90;;;;;;5032553;28;20218;-70
2021/09/24 04:46:51;;;;;;;9.33;1.77;;;12.20;99.90;;;;;;5031550;28;20199;-70
2021/09/24 04:49:19;;;;;;;6.97;2.13;;;12.20;99.90;;;;;;5032494;28;20600;-69
2021/09/24 04:51:46;;;;;;;7.20;2.10;;;12.20;99.90;;;;;;5031963;28;20677;-70
2021/09/24 04:54:13;;;;;;;8.03;2.03;;;12.20;99.90;;;;;;5032772;28;20209;-70
2021/09/24 04:56:40;;;;;;;6.00;2.20;;;12.20;99.90;;;;;;5032154;28;20883;-69
2021/09/24 04:59:07;;;;;;;8.40;2.10;;;12.20;99.90;;;;;;5018007;28;20240;-69
2021/09/24 05:01:34;;;;;;;9.20;2.37;;;12.20;99.90;;;;;;5030850;28;20210;-70
2021/09/24 05:04:01;;;;;;;8.83;2.00;;;12.30;99.90;;;;;;5031806;28;20305;-70
2021/09/24 05:06:29;;;;;;;10.43;2.10;;;12.30;99.90;;;;;;5031921;28;20272;-70
2021/09/24 05:08:56;;;;;;;9.13;2.50;;;12.30;99.90;;;;;;5032081;28;20240;-70
2021/09/24 05:11:23;;;;;;;10.53;2.30;;;12.30;99.90;;;;;;5027034;28;20207;-68
2021/09/24 05:13:50;;;;;;;13.13;2.70;;;12.30;99.90;;;;;;5030925;28;20557;-70
2021/09/24 05:16:17;;;;;;;7.80;2.30;;;12.30;99.90;;;;;;5027938;28;20203;-69
2021/09/24 05:18:44;;;;;;;6.70;2.17;;;12.50;99.90;;;;;;5032664;28;20213;-69
2021/09/24 05:21:11;;;;;;;13.03;2.60;;;12.40;99.90;;;;;;5031592;28;20225;-69
2021/09/24 05:23:40;;;;;;;14.53;2.23;;;12.50;99.90;;;;;;5032315;28;20210;-69
2021/09/24 05:26:07;;;;;;;8.20;1.97;;;12.50;99.90;;;;;;5032194;28;20625;-69
2021/09/24 05:28:34;;;;;;;9.33;2.70;;;12.60;99.90;;;;;;5031534;28;20334;-70
2021/09/24 05:31:01;;;;;;;8.47;2.13;;;12.60;99.90;;;;;;5030993;28;20233;-70
2021/09/24 05:33:28;;;;;;;6.17;1.93;;;12.60;99.90;;;;;;5031580;28;20202;-70
2021/09/24 05:35:55;;;;;;;15.17;2.60;;;12.60;99.90;;;;;;5031262;28;20709;-70
2021/09/24 05:38:21;;;;;;;13.93;2.53;;;12.60;99.90;;;;;;5031557;28;20214;-69
2021/09/24 05:40:50;;;;;;;11.40;1.93;;;12.70;99.90;;;;;;5031235;28;20198;-70
2021/09/24 05:43:16;;;;;;;9.03;2.53;;;12.70;99.90;;;;;;5031126;28;20210;-69
2021/09/24 05:45:46;;;;;;;8.30;2.17;;;12.70;99.90;;;;;;5031038;28;20220;-68
2021/09/24 05:48:13;;;;;;;14.07;2.53;;;12.80;99.90;;;;;;5036688;28;20607;-69
2021/09/24 05:50:40;;;;;;;9.00;1.80;;;12.80;99.90;;;;;;5038367;28;20230;-69
2021/09/24 05:53:06;;;;;;;12.17;2.60;;;12.80;99.90;;;;;;5031489;28;20214;-69
2021/09/24 05:55:33;;;;;;;10.53;2.80;;;12.80;99.90;;;;;;5031273;28;20219;-69
2021/09/24 05:58:02;;;;;;;10.83;3.53;;;12.80;99.90;;;;;;5031799;28;20210;-69
2021/09/24 06:00:28;;;;;;;6.30;2.00;;;12.80;99.90;;;;;;5031362;28;20206;-69
2021/09/24 06:02:55;;;;;;;8.10;2.47;;;12.80;99.90;;;;;;5031828;28;20209;-69
2021/09/24 06:05:22;;;;;;;9.83;2.60;;;12.90;99.90;;;;;;5031185;28;20289;-69
2021/09/24 06:07:49;;;;;;;13.33;2.80;;;12.90;99.90;;;;;;5032999;28;20645;-70
2021/09/24 06:10:18;;;;;;;6.60;2.20;;;13.00;99.90;;;;;;5031622;28;20260;-69
2021/09/24 06:12:48;;;;;;;8.53;2.17;;;13.00;99.90;;;;;;5031401;28;20672;-71
2021/09/24 06:15:18;;;;;;;10.93;3.00;;;13.00;99.90;;;;;;5021944;28;20208;-70
2021/09/24 06:17:45;;;;;;;6.60;2.13;;;13.10;99.90;;;;;;5029141;28;20210;-69
2021/09/24 06:20:13;;;;;;;8.37;2.23;;;13.10;99.90;;;;;;5030899;28;20292;-69
2021/09/24 06:22:40;;;;;;;8.57;2.40;;;13.10;99.90;;;;;;5027178;28;20214;-69
2021/09/24 06:25:07;;;;;;;6.87;2.30;;;13.10;99.90;;;;;;5023140;28;20698;-72
2021/09/24 06:27:36;;;;;;;9.13;2.60;;;13.20;99.90;;;;;;5030794;28;20231;-72
2021/09/24 06:30:05;;;;;;;10.30;2.37;;;13.30;99.90;;;;;;5024502;28;20261;-71
2021/09/24 06:32:33;;;;;;;11.20;2.73;;;13.30;99.90;;;;;;5028355;28;20572;-73
2021/09/24 06:35:00;;;;;;;9.60;2.30;;;13.40;99.90;;;;;;5031998;28;20293;-72
2021/09/24 06:37:27;;;;;;;13.60;2.67;;;13.40;99.90;;;;;;5034944;28;20237;-73
2021/09/24 06:39:54;;;;;;;7.70;2.77;;;13.40;99.90;;;;;;5035054;28;20228;-72
2021/09/24 06:42:21;;;;;;;7.27;2.50;;;13.50;99.90;;;;;;5030800;28;20203;-72
2021/09/24 06:44:48;;;;;;;7.87;2.40;;;13.50;99.90;;;;;;5031717;28;20207;-72
2021/09/24 06:47:17;;;;;;;11.10;2.83;;;13.50;99.90;;;;;;5030708;28;20292;-72
2021/09/24 06:49:45;;;;;;;10.23;2.37;;;13.60;99.90;;;;;;5030909;28;20238;-70
2021/09/24 06:52:12;;;;;;;9.93;2.57;;;13.60;99.90;;;;;;5026229;28;20405;-72
2021/09/24 06:54:39;;;;;;;7.20;2.57;;;13.60;99.90;;;;;;5048211;28;20677;-71
2021/09/24 06:57:06;;;;;;;8.03;2.43;;;13.60;99.90;;;;;;5039926;28;20689;-70
2021/09/24 06:59:34;;;;;;;9.43;2.43;;;13.60;99.90;;;;;;5033013;28;20281;-71
2021/09/24 07:02:01;;;;;;;9.97;2.73;;;13.50;99.90;;;;;;5035326;28;20297;-70
2021/09/24 07:04:28;;;;;;;9.20;2.80;;;13.50;99.90;;;;;;5029957;28;20210;-73
2021/09/24 07:06:56;;;;;;;8.57;2.90;;;13.50;99.90;;;;;;5030054;28;20207;-71
2021/09/24 07:09:23;;;;;;;8.53;2.37;;;13.50;99.90;;;;;;5031148;28;20219;-71
2021/09/24 07:11:51;;;;;;;9.83;2.37;;;13.50;99.90;;;;;;5029797;28;20217;-70
2021/09/24 07:14:19;;;;;;;8.53;2.53;;;13.50;99.90;;;;;;5030518;28;20644;-71
2021/09/24 07:16:47;;;;;;;7.57;2.83;;;13.50;99.90;;;;;;5030743;28;20211;-70
2021/09/24 07:19:14;;;;;;;9.97;2.67;;;13.50;99.90;;;;;;5030485;28;20301;-71
2021/09/24 07:21:41;;;;;;;9.17;2.83;;;13.50;99.90;;;;;;5030233;28;20707;-72
2021/09/24 07:24:10;;;;;;;8.53;2.43;;;13.50;99.90;;;;;;5032517;28;20198;-72
2021/09/24 07:26:37;;;;;;;8.57;2.70;;;13.50;99.90;;;;;;5035833;28;20237;-70
2021/09/24 07:29:04;;;;;;;7.90;2.47;;;13.60;99.90;;;;;;5035839;28;20239;-71
2021/09/24 07:31:31;;;;;;;5.23;2.07;;;13.60;99.90;;;;;;5031464;28;20251;-70
2021/09/24 07:33:58;;;;;;;11.20;3.53;;;13.70;99.90;;;;;;5026586;28;20298;-69
2021/09/24 07:36:25;;;;;;;8.83;2.23;;;13.80;99.90;;;;;;5029710;28;20254;-70
2021/09/24 07:38:53;;;;;;;8.90;2.20;;;13.80;99.90;;;;;;5036456;28;20584;-69
2021/09/24 07:41:21;;;;;;;5.40;2.00;;;13.90;99.90;;;;;;5039020;28;20201;-69
2021/09/24 07:43:51;;;;;;;10.90;2.53;;;13.90;99.90;;;;;;5040128;28;20652;-69
2021/09/24 07:46:19;;;;;;;6.43;2.27;;;14.00;99.90;;;;;;5033254;28;20702;-70
2021/09/24 07:48:46;;;;;;;7.90;2.20;;;14.00;99.90;;;;;;5033599;28;20620;-71
2021/09/24 07:51:14;;;;;;;4.93;2.40;;;14.10;99.90;;;;;;5032751;28;20222;-71
2021/09/24 07:53:41;;;;;;;10.80;2.30;;;14.20;99.90;;;;;;5033552;28;20245;-70
2021/09/24 07:56:08;;;;;;;8.10;2.60;;;14.40;99.90;;;;;;5032870;28;20211;-72
2021/09/24 07:58:38;;;;;;;8.07;2.07;;;14.60;99.90;;;;;;5033095;28;20211;-71
2021/09/24 08:01:05;;;;;;;9.57;2.40;;;14.80;99.90;;;;;;5027006;28;20290;-70
2021/09/24 08:03:32;;;;;;;12.77;2.87;;;14.90;99.90;;;;;;5034442;28;20207;-69
2021/09/24 08:05:59;;;;;;;7.53;2.43;;;15.00;99.90;;;;;;5031109;28;20206;-71
2021/09/24 08:08:26;;;;;;;7.17;2.80;;;15.10;99.90;;;;;;5037592;28;20213;-69
2021/09/24 08:10:53;;;;;;;5.20;2.17;;;15.20;99.90;;;;;;5032526;28;20218;-70
2021/09/24 08:13:20;;;;;;;8.53;2.60;;;15.40;99.90;;;;;;5049610;28;20294;-69
2021/09/24 08:15:48;;;;;;;9.43;3.07;;;15.60;99.90;;;;;;5031987;28;20623;-70
2021/09/24 08:18:17;;;;;;;6.23;2.60;;;15.70;99.90;;;;;;5042512;28;20214;-69
2021/09/24 08:20:45;;;;;;;6.93;2.33;;;15.80;99.90;;;;;;5032485;28;20214;-70
2021/09/24 08:23:12;;;;;;;11.47;2.60;;;16.00;99.90;;;;;;5036068;28;20660;-70
2021/09/24 08:25:40;;;;;;;6.10;2.00;;;16.10;99.90;;;;;;5029711;28;20212;-70
2021/09/24 08:28:08;;;;;;;9.63;2.70;;;16.30;99.90;;;;;;5029694;28;20241;-71
2021/09/24 08:30:36;;;;;;;6.23;1.80;;;16.40;99.90;;;;;;5030007;28;20230;-70
2021/09/24 08:33:04;;;;;;;7.13;2.43;;;16.40;99.90;;;;;;5031159;28;20207;-70
2021/09/24 08:35:31;;;;;;;7.00;2.00;;;16.40;99.90;;;;;;5033030;28;21743;-70
2021/09/24 08:37:59;;;;;;;8.10;2.23;;;16.40;99.90;;;;;;5038716;28;20284;-71
2021/09/24 08:40:28;;;;;;;7.67;2.30;;;16.40;99.90;;;;;;5031535;28;20195;-70
2021/09/24 08:42:56;;;;;;;6.43;2.40;;;16.50;99.90;;;;;;5032390;28;20206;-70
2021/09/24 08:45:26;;;;;;;6.97;2.30;;;16.50;99.90;;;;;;5028882;28;20595;-69
2021/09/24 08:47:54;;;;;;;4.27;1.50;;;16.60;99.90;;;;;;5033266;28;20848;-71
2021/09/24 08:50:23;;;;;;;5.63;1.80;;;16.80;99.90;;;;;;5032660;28;20690;-71
2021/09/24 08:52:50;;;;;;;4.80;1.67;;;16.90;99.90;;;;;;5032550;28;20213;-69
2021/09/24 08:55:18;;;;;;;5.50;2.27;;;17.00;99.90;;;;;;5033244;28;20207;-71
2021/09/24 08:57:46;;;;;;;8.50;2.40;;;17.10;99.90;;;;;;5032386;28;20214;-70
2021/09/24 09:00:15;;;;;;;8.03;2.07;;;17.20;99.90;;;;;;5031760;28;20575;-70
2021/09/24 09:02:56;;;;;;;5.93;2.10;;;17.10;99.90;;;;;;5027330;28;20330;-71
2021/09/24 09:05:25;;;;;;;8.17;2.30;;;16.90;99.90;;;;;;5031148;28;20261;-70
2021/09/24 09:08:06;;;;;;;4.23;1.87;;;16.90;99.90;;;;;;5027558;28;20665;-71
2021/09/24 09:10:42;;;;;;;7.20;2.13;;;16.90;99.90;;;;;;5026045;28;20228;-70
2021/09/24 09:13:11;;;;;;;8.07;2.03;;;17.40;99.90;;;;;;5031223;28;20641;-70
2021/09/24 09:15:39;;;;;;;7.68;2.00;;;19.00;99.90;;;;;;5031606;28;20306;-71
2021/09/24 09:18:06;;;;;;;4.78;1.70;;;20.80;99.90;;;;;;5030048;28;20561;-69
2021/09/24 09:20:35;;;;;;;4.55;1.33;;;23.60;97.40;;;;;;5035118;28;20198;-72
2021/09/24 09:23:09;;;;;;;5.95;1.90;;;26.20;81.70;;;;;;5041575;28;20261;-70
2021/09/24 09:25:38;;;;;;;4.50;1.70;;;26.90;78.20;;;;;;5036700;28;20718;-70
2021/09/24 09:28:07;;;;;;;6.30;2.20;;;27.30;66.90;;;;;;5031746;28;20253;-73
2021/09/24 09:30:35;;;;;;;3.42;1.80;;;26.50;63.00;;;;;;5030193;28;20276;-70
2021/09/24 09:33:08;;;;;;;6.10;1.55;;;25.10;63.60;;;;;;5027711;28;20735;-70
2021/09/24 09:35:38;;;;;;;9.48;2.30;;;23.50;66.20;;;;;;5032231;28;20260;-70
2021/09/24 09:38:05;;;;;;;4.32;1.65;;;22.10;69.30;;;;;;5036048;28;20703;-70
2021/09/24 09:40:32;;;;;;;5.40;1.77;;;21.10;73.60;;;;;;5018193;28;20640;-69
2021/09/24 09:42:59;;;;;;;7.50;2.17;;;20.30;76.60;;;;;;5042752;28;20694;-70
2021/09/24 09:45:28;;;;;;;5.43;1.98;;;20.10;83.20;;;;;;5044613;28;20301;-70
2021/09/24 09:47:56;;;;;;;4.05;1.73;;;20.40;79.60;;;;;;5022784;28;20218;-68
2021/09/24 09:50:25;;;;;;;5.47;1.77;;;20.40;88.30;;;;;;5034923;28;20230;-71
2021/09/24 09:53:02;;;;;;;3.60;1.65;;;22.90;84.60;;;;;;5030717;28;20295;-68
2021/09/24 09:55:31;;;;;;;3.10;1.70;;;25.60;73.20;;;;;;5039140;28;20225;-69
2021/09/24 09:58:02;;;;;;;4.18;1.50;;;28.50;64.10;;;;;;5036318;28;20237;-68
2021/09/24 10:00:30;;;;;;;4.82;1.63;;;30.20;54.40;;;;;;5028559;28;20859;-68
2021/09/24 10:03:09;;;;;;;5.00;2.00;;;30.30;53.60;;;;;;5030984;28;20207;-68
2021/09/24 10:05:38;;;;;;;9.32;1.77;;;30.50;53.50;;;;;;5025502;28;20221;-69
2021/09/24 10:08:24;;;;;;;8.27;2.00;;;31.50;50.10;;;;;;5047243;28;20289;-69
2021/09/24 10:11:04;;;;;;;5.07;1.50;;;32.40;46.90;;;;;;5035279;28;20331;-68
2021/09/24 10:13:33;;;;;;;2.30;1.15;;;32.00;47.00;;;;;;5030726;28;20682;-69
2021/09/24 10:16:00;;;;;;;4.70;2.05;;;32.50;46.70;;;;;;5040902;28;20781;-68
2021/09/24 10:18:27;;;;;;;2.75;1.58;;;32.50;45.00;;;;;;5036467;28;20715;-68
2021/09/24 10:20:54;;;;;;;5.97;1.58;;;33.50;44.20;;;;;;5031923;28;20198;-69
2021/09/24 10:23:22;;;;;;;4.20;1.63;;;33.00;42.40;;;;;;5032924;28;20301;-69
2021/09/24 10:25:56;;;;;;;3.55;1.10;;;32.30;44.50;;;;;;5030099;28;20210;-69
2021/09/24 10:28:33;;;;;;;5.32;1.70;;;32.50;43.30;;;;;;5030216;28;20230;-69
2021/09/24 10:31:03;;;;;;;6.32;1.45;;;31.80;42.90;;;;;;5028792;28;20305;-69
2021/09/24 10:33:49;;;;;;;3.67;1.40;;;31.10;45.30;;;;;;5028977;28;20538;-70
2021/09/24 10:36:37;;;;;;;5.47;1.40;;;30.40;46.90;;;;;;5041608;28;20305;-69
2021/09/24 10:39:06;;;;;;;6.22;1.65;;;31.50;43.90;;;;;;5044456;28;20197;-69
2021/09/24 10:41:33;;;;;;;7.70;1.63;;;32.70;43.20;;;;;;5038119;28;20568;-70
2021/09/24 10:44:00;;;;;;;2.80;1.35;;;32.10;41.50;;;;;;5040912;28;20202;-70
2021/09/24 10:46:32;;;;;;;3.90;1.40;;;30.50;42.90;;;;;;5035490;28;20214;-69
2021/09/24 10:49:32;;;;;;;5.78;2.03;;;28.80;46.30;;;;;;5036850;28;20202;-70
2021/09/24 10:52:13;;;;;;;2.78;1.08;;;27.20;48.00;;;;;;5028163;28;20579;-68
2021/09/24 10:54:56;;;;;;;4.13;1.27;;;26.60;49.80;;;;;;5030059;28;20213;-69
2021/09/24 10:57:23;;;;;;;2.03;1.15;;;25.70;50.40;;;;;;5030032;28;20199;-68
2021/09/24 10:59:50;;;;;;;3.22;1.33;;;25.10;57.00;;;;;;5032855;28;20301;-70
2021/09/24 11:02:39;;;;;;;4.45;1.63;;;25.90;51.70;;;;;;5033282;28;20631;-69
2021/09/24 11:05:09;;;;;;;5.15;1.10;;;25.50;53.40;;;;;;5034391;28;20619;-69
2021/09/24 11:07:37;;;;;;;2.65;1.20;;;25.10;54.20;;;;;;5034675;28;20293;-70
2021/09/24 11:10:07;;;;;;;4.43;1.20;;;24.90;53.10;;;;;;5028554;28;20644;-70
2021/09/24 11:12:34;;;;;;;3.97;1.50;;;24.60;53.10;;;;;;5030472;28;20235;-69
2021/09/24 11:15:12;;;;;;;2.85;1.15;;;23.90;53.10;;;;;;5029732;28;20523;-70
2021/09/24 11:17:42;;;;;;;4.03;1.40;;;22.90;55.00;;;;;;5032338;28;20333;-72
2021/09/24 11:20:32;;;;;;;3.72;1.45;;;22.10;56.70;;;;;;5025040;28;20653;-70
2021/09/24 11:23:00;;;;;;;3.60;1.40;;;21.60;58.80;;;;;;5034660;28;20215;-69
2021/09/24 11:25:29;;;;;;;4.35;1.20;;;21.40;60.20;;;;;;5034224;28;20213;-71
2021/09/24 11:27:58;;;;;;;5.10;1.58;;;22.40;59.40;;;;;;5033689;28;20241;-70
2021/09/24 11:30:26;;;;;;;3.50;1.42;;;22.50;59.50;;;;;;5033216;28;20206;-70
2021/09/24 11:32:55;;;;;;;2.92;1.25;;;22.30;57.30;;;;;;5041285;28;20318;-69
2021/09/24 11:35:30;;;;;;;3.67;1.20;;;21.80;58.00;;;;;;5035065;28;20207;-70
2021/09/24 11:38:06;;;;;;;4.22;1.65;;;21.10;58.70;;;;;;5026889;28;20564;-69
2021/09/24 11:40:36;;;;;;;5.57;3.15;;;20.50;60.00;;;;;;5040087;28;20289;-73
2021/09/24 11:43:04;;;;;;;4.88;1.20;;;20.00;61.40;;;;;;5035406;28;20199;-74
2021/09/24 11:45:32;;;;;;;4.47;1.38;;;19.60;63.30;;;;;;5030579;28;20294;-69
2021/09/24 11:48:01;;;;;;;4.57;1.25;;;19.40;65.00;;;;;;5032824;28;20708;-69
2021/09/24 11:50:31;;;;;;;2.58;1.48;;;19.00;65.30;;;;;;5029992;28;20218;-69
2021/09/24 11:52:59;;;;;;;7.35;1.55;;;19.10;72.60;;;;;;5031746;28;20226;-69
2021/09/24 11:55:29;;;;;;;4.68;1.92;;;19.20;69.10;;;;;;5034826;28;20203;-70
2021/09/24 11:58:04;;;;;;;6.57;1.95;;;19.50;72.40;;;;;;5032055;28;20260;-70
2021/09/24 12:00:32;;;;;;;3.17;1.50;;;19.60;66.40;;;;;;5032675;28;20202;-70
2021/09/24 12:03:10;;;;;;;3.75;1.30;;;19.30;66.40;;;;;;5033220;28;20211;-70
2021/09/24 12:05:37;;;;;;;3.55;1.38;;;18.90;67.60;;;;;;5032961;28;20213;-71
2021/09/24 12:08:12;;;;;;;6.90;1.85;;;19.00;73.00;;;;;;5023159;28;20222;-71
2021/09/24 12:10:39;;;;;;;7.77;1.60;;;19.10;69.10;;;;;;5033079;28;20762;-71
2021/09/24 12:13:09;;;;;;;3.22;1.45;;;19.40;69.40;;;;;;5033974;28;20227;-71
2021/09/24 12:16:06;;;;;;;3.15;1.10;;;19.50;67.80;;;;;;5033979;28;20210;-71
2021/09/24 12:18:50;;;;;;;4.60;1.60;;;19.60;66.90;;;;;;4971902;28;20297;-70
2021/09/24 12:21:19;;;;;;;6.30;1.92;;;19.40;67.20;;;;;;5013693;28;20249;-70
2021/09/24 12:23:46;;;;;;;4.10;1.30;;;19.20;67.60;;;;;;5034916;28;20569;-70
2021/09/24 12:26:14;;;;;;;3.30;1.77;;;18.90;68.40;;;;;;5034021;28;20305;-70
2021/09/24 12:28:57;;;;;;;4.10;1.20;;;18.60;68.90;;;;;;5033588;28;20646;-73
2021/09/24 12:31:42;;;;;;;4.30;1.37;;;18.40;70.40;;;;;;5032175;28;20582;-72
2021/09/24 12:34:11;;;;;;;4.03;1.30;;;18.40;71.00;;;;;;5034059;28;20242;-70
2021/09/24 12:36:51;;;;;;;7.25;1.70;;;18.60;72.50;;;;;;5032791;28;20336;-72
2021/09/24 12:39:21;;;;;;;5.15;1.55;;;18.90;71.10;;;;;;5043485;28;20210;-72
2021/09/24 12:41:48;;;;;;;5.40;1.60;;;19.00;69.70;;;;;;5025082;28;20210;-69
2021/09/24 12:44:17;;;;;;;8.68;1.88;;;19.10;69.70;;;;;;5033652;28;20650;-70
2021/09/24 12:46:47;;;;;;;5.80;1.23;;;19.10;68.70;;;;;;5032341;28;20210;-70
2021/09/24 12:49:14;;;;;;;4.78;1.30;;;19.00;69.00;;;;;;5032721;28;20289;-70
2021/09/24 12:51:42;;;;;;;7.07;1.40;;;18.80;69.20;;;;;;5033595;28;20226;-70
2021/09/24 12:54:10;;;;;;;3.72;1.70;;;18.70;69.90;;;;;;5039054;28;20210;-70